sensor_id;sensor_type;location;lat;lon;timestamp;P1;durP1;ratioP1;P2;durP2;ratioP2
12816;SDS011;6473;51.552;6.716;2023-02-10T00:00:30;35.60;;;21.80;;
12816;SDS011;6473;51.552;6.716;2023-02-10T00:02:57;31.98;;;21.02;;
12816;SDS011;6473;51.552;6.716;2023-02-10T00:05:24;34.30;;;21.20;;
12816;SDS011;6473;51.552;6.716;2023-02-10T00:07:52;32.13;;;20.40;;
12816;SDS011;6473;51.552;6.716;2023-02-10T00:10:19;35.10;;;21.35;;
12816;SDS011;6473;51.552;6.716;2023-02-10T00:12:46;31.80;;;20.58;;
12816;SDS011;6473;51.552;6.716;2023-02-10T00:15:14;29.85;;;19.17;;
12816;SDS011;6473;51.552;6.716;2023-02-10T00:17:41;31.27;;;20.38;;
12816;SDS011;6473;51.552;6.716;2023-02-10T00:20:09;32.55;;;20.83;;
12816;SDS011;6473;51.552;6.716;2023-02-10T00:22:36;33.35;;;20.88;;
12816;SDS011;6473;51.552;6.716;2023-02-10T00:25:03;36.08;;;22.10;;
12816;SDS011;6473;51.552;6.716;2023-02-10T00:27:30;32.92;;;20.77;;
12816;SDS011;6473;51.552;6.716;2023-02-10T00:29:57;35.65;;;21.13;;
12816;SDS011;6473;51.552;6.716;2023-02-10T00:32:26;33.03;;;19.73;;
12816;SDS011;6473;51.552;6.716;2023-02-10T00:34:53;33.08;;;21.55;;
12816;SDS011;6473;51.552;6.716;2023-02-10T00:37:20;32.08;;;20.35;;
12816;SDS011;6473;51.552;6.716;2023-02-10T00:39:46;31.58;;;20.45;;
12816;SDS011;6473;51.552;6.716;2023-02-10T00:42:13;34.08;;;20.50;;
12816;SDS011;6473;51.552;6.716;2023-02-10T00:44:40;35.15;;;21.45;;
12816;SDS011;6473;51.552;6.716;2023-02-10T00:47:07;31.90;;;20.45;;
12816;SDS011;6473;51.552;6.716;2023-02-10T00:49:36;36.38;;;21.42;;
12816;SDS011;6473;51.552;6.716;2023-02-10T00:52:03;29.75;;;20.38;;
12816;SDS011;6473;51.552;6.716;2023-02-10T00:54:30;34.08;;;20.63;;
12816;SDS011;6473;51.552;6.716;2023-02-10T00:56:57;35.13;;;21.38;;
12816;SDS011;6473;51.552;6.716;2023-02-10T00:59:24;33.05;;;21.10;;
12816;SDS011;6473;51.552;6.716;2023-02-10T01:01:52;34.17;;;22.52;;
12816;SDS011;6473;51.552;6.716;2023-02-10T01:04:18;32.88;;;20.95;;
12816;SDS011;6473;51.552;6.716;2023-02-10T01:06:47;34.85;;;21.75;;
12816;SDS011;6473;51.552;6.716;2023-02-10T01:09:14;33.55;;;21.33;;
12816;SDS011;6473;51.552;6.716;2023-02-10T01:11:42;32.65;;;21.33;;
12816;SDS011;6473;51.552;6.716;2023-02-10T01:14:10;34.00;;;21.52;;
12816;SDS011;6473;51.552;6.716;2023-02-10T01:16:37;35.40;;;22.00;;
12816;SDS011;6473;51.552;6.716;2023-02-10T01:19:07;34.70;;;21.17;;
12816;SDS011;6473;51.552;6.716;2023-02-10T01:21:34;33.92;;;22.38;;
12816;SDS011;6473;51.552;6.716;2023-02-10T01:24:05;33.83;;;21.70;;
12816;SDS011;6473;51.552;6.716;2023-02-10T01:26:32;37.00;;;21.60;;
12816;SDS011;6473;51.552;6.716;2023-02-10T01:28:59;40.53;;;22.45;;
12816;SDS011;6473;51.552;6.716;2023-02-10T01:31:27;35.95;;;22.13;;
12816;SDS011;6473;51.552;6.716;2023-02-10T01:33:55;36.20;;;22.73;;
12816;SDS011;6473;51.552;6.716;2023-02-10T01:36:23;34.50;;;22.58;;
12816;SDS011;6473;51.552;6.716;2023-02-10T01:38:51;36.92;;;24.00;;
12816;SDS011;6473;51.552;6.716;2023-02-10T01:41:21;40.97;;;24.50;;
12816;SDS011;6473;51.552;6.716;2023-02-10T01:43:52;40.53;;;23.88;;
12816;SDS011;6473;51.552;6.716;2023-02-10T01:46:24;38.80;;;23.92;;
12816;SDS011;6473;51.552;6.716;2023-02-10T01:48:52;39.67;;;24.17;;
12816;SDS011;6473;51.552;6.716;2023-02-10T01:51:22;40.65;;;23.23;;
12816;SDS011;6473;51.552;6.716;2023-02-10T01:53:55;42.60;;;24.15;;
12816;SDS011;6473;51.552;6.716;2023-02-10T01:56:23;37.75;;;23.65;;
12816;SDS011;6473;51.552;6.716;2023-02-10T01:58:50;39.83;;;24.17;;
12816;SDS011;6473;51.552;6.716;2023-02-10T02:01:17;43.90;;;24.98;;
12816;SDS011;6473;51.552;6.716;2023-02-10T02:03:45;37.40;;;23.90;;
12816;SDS011;6473;51.552;6.716;2023-02-10T02:06:12;40.17;;;23.77;;
12816;SDS011;6473;51.552;6.716;2023-02-10T02:08:39;38.92;;;25.23;;
12816;SDS011;6473;51.552;6.716;2023-02-10T02:11:11;41.58;;;25.60;;
12816;SDS011;6473;51.552;6.716;2023-02-10T02:14:00;42.30;;;24.80;;
12816;SDS011;6473;51.552;6.716;2023-02-10T02:16:50;37.88;;;24.33;;
12816;SDS011;6473;51.552;6.716;2023-02-10T02:22:47;34.65;;;22.52;;
12816;SDS011;6473;51.552;6.716;2023-02-10T02:25:32;38.75;;;24.00;;
12816;SDS011;6473;51.552;6.716;2023-02-10T02:28:11;41.65;;;24.00;;
12816;SDS011;6473;51.552;6.716;2023-02-10T02:34:07;42.53;;;24.23;;
12816;SDS011;6473;51.552;6.716;2023-02-10T02:36:40;34.33;;;23.45;;
12816;SDS011;6473;51.552;6.716;2023-02-10T02:39:12;42.85;;;25.00;;
12816;SDS011;6473;51.552;6.716;2023-02-10T02:41:39;38.58;;;24.52;;
12816;SDS011;6473;51.552;6.716;2023-02-10T02:44:06;41.85;;;25.35;;
12816;SDS011;6473;51.552;6.716;2023-02-10T02:46:35;38.15;;;25.60;;
12816;SDS011;6473;51.552;6.716;2023-02-10T02:49:16;42.88;;;24.00;;
12816;SDS011;6473;51.552;6.716;2023-02-10T02:51:49;40.38;;;25.15;;
12816;SDS011;6473;51.552;6.716;2023-02-10T02:54:24;42.08;;;24.95;;
12816;SDS011;6473;51.552;6.716;2023-02-10T02:56:55;42.13;;;25.45;;
12816;SDS011;6473;51.552;6.716;2023-02-10T02:59:30;41.90;;;26.27;;
12816;SDS011;6473;51.552;6.716;2023-02-10T03:02:01;42.80;;;25.27;;
12816;SDS011;6473;51.552;6.716;2023-02-10T03:04:32;43.17;;;25.60;;
12816;SDS011;6473;51.552;6.716;2023-02-10T03:07:00;44.47;;;24.48;;
12816;SDS011;6473;51.552;6.716;2023-02-10T03:09:27;45.22;;;26.25;;
12816;SDS011;6473;51.552;6.716;2023-02-10T03:11:54;41.37;;;25.87;;
12816;SDS011;6473;51.552;6.716;2023-02-10T03:14:21;40.70;;;25.23;;
12816;SDS011;6473;51.552;6.716;2023-02-10T03:16:48;44.70;;;26.90;;
12816;SDS011;6473;51.552;6.716;2023-02-10T03:19:16;43.60;;;27.33;;
12816;SDS011;6473;51.552;6.716;2023-02-10T03:21:44;39.87;;;25.27;;
12816;SDS011;6473;51.552;6.716;2023-02-10T03:24:12;48.53;;;26.67;;
12816;SDS011;6473;51.552;6.716;2023-02-10T03:26:39;50.67;;;27.40;;
12816;SDS011;6473;51.552;6.716;2023-02-10T03:29:06;46.47;;;26.17;;
12816;SDS011;6473;51.552;6.716;2023-02-10T03:31:33;46.78;;;26.45;;
12816;SDS011;6473;51.552;6.716;2023-02-10T03:34:00;41.80;;;26.45;;
12816;SDS011;6473;51.552;6.716;2023-02-10T03:36:27;41.40;;;25.67;;
12816;SDS011;6473;51.552;6.716;2023-02-10T03:38:55;48.22;;;27.67;;
12816;SDS011;6473;51.552;6.716;2023-02-10T03:41:22;50.08;;;26.38;;
12816;SDS011;6473;51.552;6.716;2023-02-10T03:43:48;46.40;;;25.43;;
12816;SDS011;6473;51.552;6.716;2023-02-10T03:46:16;47.57;;;26.67;;
12816;SDS011;6473;51.552;6.716;2023-02-10T03:48:43;45.55;;;26.45;;
12816;SDS011;6473;51.552;6.716;2023-02-10T03:51:10;46.05;;;26.98;;
12816;SDS011;6473;51.552;6.716;2023-02-10T03:53:38;46.22;;;26.20;;
12816;SDS011;6473;51.552;6.716;2023-02-10T03:56:06;44.88;;;25.25;;
12816;SDS011;6473;51.552;6.716;2023-02-10T03:58:33;45.10;;;25.57;;
12816;SDS011;6473;51.552;6.716;2023-02-10T04:01:07;46.73;;;27.97;;
12816;SDS011;6473;51.552;6.716;2023-02-10T04:03:35;45.50;;;26.43;;
12816;SDS011;6473;51.552;6.716;2023-02-10T04:06:02;47.33;;;27.33;;
12816;SDS011;6473;51.552;6.716;2023-02-10T04:08:29;48.47;;;26.97;;
12816;SDS011;6473;51.552;6.716;2023-02-10T04:10:56;52.73;;;28.23;;
12816;SDS011;6473;51.552;6.716;2023-02-10T04:13:24;47.33;;;26.80;;
12816;SDS011;6473;51.552;6.716;2023-02-10T04:15:59;47.90;;;27.23;;
12816;SDS011;6473;51.552;6.716;2023-02-10T04:18:26;50.03;;;27.47;;
12816;SDS011;6473;51.552;6.716;2023-02-10T04:20:54;51.73;;;28.37;;
12816;SDS011;6473;51.552;6.716;2023-02-10T04:23:21;49.63;;;28.00;;
12816;SDS011;6473;51.552;6.716;2023-02-10T04:25:48;46.00;;;27.47;;
12816;SDS011;6473;51.552;6.716;2023-02-10T04:28:15;46.30;;;26.20;;
12816;SDS011;6473;51.552;6.716;2023-02-10T04:30:44;55.63;;;28.60;;
12816;SDS011;6473;51.552;6.716;2023-02-10T04:33:11;48.87;;;27.53;;
12816;SDS011;6473;51.552;6.716;2023-02-10T04:35:37;45.27;;;27.20;;
12816;SDS011;6473;51.552;6.716;2023-02-10T04:38:05;53.07;;;27.67;;
12816;SDS011;6473;51.552;6.716;2023-02-10T04:40:32;49.60;;;27.33;;
12816;SDS011;6473;51.552;6.716;2023-02-10T04:42:59;51.47;;;29.10;;
12816;SDS011;6473;51.552;6.716;2023-02-10T04:45:26;51.53;;;27.97;;
12816;SDS011;6473;51.552;6.716;2023-02-10T04:47:54;51.23;;;27.93;;
12816;SDS011;6473;51.552;6.716;2023-02-10T04:50:21;44.60;;;28.17;;
12816;SDS011;6473;51.552;6.716;2023-02-10T04:52:48;48.40;;;28.00;;
12816;SDS011;6473;51.552;6.716;2023-02-10T04:55:16;52.73;;;28.50;;
12816;SDS011;6473;51.552;6.716;2023-02-10T04:57:43;47.37;;;28.60;;
12816;SDS011;6473;51.552;6.716;2023-02-10T05:00:11;53.90;;;29.03;;
12816;SDS011;6473;51.552;6.716;2023-02-10T05:02:39;57.77;;;31.10;;
12816;SDS011;6473;51.552;6.716;2023-02-10T05:05:09;56.03;;;29.47;;
12816;SDS011;6473;51.552;6.716;2023-02-10T05:07:37;52.60;;;27.53;;
12816;SDS011;6473;51.552;6.716;2023-02-10T05:10:04;51.87;;;29.00;;
12816;SDS011;6473;51.552;6.716;2023-02-10T05:12:31;49.40;;;27.63;;
12816;SDS011;6473;51.552;6.716;2023-02-10T05:14:58;48.97;;;29.10;;
12816;SDS011;6473;51.552;6.716;2023-02-10T05:17:25;50.33;;;28.77;;
12816;SDS011;6473;51.552;6.716;2023-02-10T05:19:53;51.60;;;28.40;;
12816;SDS011;6473;51.552;6.716;2023-02-10T05:22:21;57.80;;;28.80;;
12816;SDS011;6473;51.552;6.716;2023-02-10T05:24:54;50.80;;;27.43;;
12816;SDS011;6473;51.552;6.716;2023-02-10T05:27:21;47.50;;;27.03;;
12816;SDS011;6473;51.552;6.716;2023-02-10T05:29:48;49.63;;;27.93;;
12816;SDS011;6473;51.552;6.716;2023-02-10T05:32:15;48.73;;;28.40;;
12816;SDS011;6473;51.552;6.716;2023-02-10T05:34:43;48.57;;;29.30;;
12816;SDS011;6473;51.552;6.716;2023-02-10T05:37:10;50.70;;;28.77;;
12816;SDS011;6473;51.552;6.716;2023-02-10T05:39:38;52.30;;;27.17;;
12816;SDS011;6473;51.552;6.716;2023-02-10T05:42:05;49.43;;;27.50;;
12816;SDS011;6473;51.552;6.716;2023-02-10T05:44:32;48.87;;;28.23;;
12816;SDS011;6473;51.552;6.716;2023-02-10T05:46:59;48.57;;;28.30;;
12816;SDS011;6473;51.552;6.716;2023-02-10T05:49:26;54.13;;;28.70;;
12816;SDS011;6473;51.552;6.716;2023-02-10T05:51:54;48.73;;;27.17;;
12816;SDS011;6473;51.552;6.716;2023-02-10T05:54:21;50.83;;;27.73;;
12816;SDS011;6473;51.552;6.716;2023-02-10T05:56:49;53.50;;;28.97;;
12816;SDS011;6473;51.552;6.716;2023-02-10T05:59:17;51.33;;;27.10;;
12816;SDS011;6473;51.552;6.716;2023-02-10T06:01:44;51.10;;;28.53;;
12816;SDS011;6473;51.552;6.716;2023-02-10T06:04:11;51.00;;;27.77;;
12816;SDS011;6473;51.552;6.716;2023-02-10T06:06:38;52.70;;;28.83;;
12816;SDS011;6473;51.552;6.716;2023-02-10T06:09:05;49.03;;;28.67;;
12816;SDS011;6473;51.552;6.716;2023-02-10T06:11:32;54.33;;;29.23;;
12816;SDS011;6473;51.552;6.716;2023-02-10T06:14:01;50.97;;;28.03;;
12816;SDS011;6473;51.552;6.716;2023-02-10T06:16:28;52.50;;;29.40;;
12816;SDS011;6473;51.552;6.716;2023-02-10T06:18:55;48.00;;;28.30;;
12816;SDS011;6473;51.552;6.716;2023-02-10T06:21:23;55.33;;;28.17;;
12816;SDS011;6473;51.552;6.716;2023-02-10T06:23:51;55.37;;;30.43;;
12816;SDS011;6473;51.552;6.716;2023-02-10T06:26:18;50.90;;;28.20;;
12816;SDS011;6473;51.552;6.716;2023-02-10T06:28:45;52.87;;;28.70;;
12816;SDS011;6473;51.552;6.716;2023-02-10T06:31:14;49.50;;;28.83;;
12816;SDS011;6473;51.552;6.716;2023-02-10T06:33:40;53.30;;;28.43;;
12816;SDS011;6473;51.552;6.716;2023-02-10T06:36:08;54.80;;;29.77;;
12816;SDS011;6473;51.552;6.716;2023-02-10T06:38:36;54.07;;;29.27;;
12816;SDS011;6473;51.552;6.716;2023-02-10T06:41:03;61.37;;;30.83;;
12816;SDS011;6473;51.552;6.716;2023-02-10T06:43:30;53.60;;;28.60;;
12816;SDS011;6473;51.552;6.716;2023-02-10T06:45:58;50.30;;;28.40;;
12816;SDS011;6473;51.552;6.716;2023-02-10T06:48:26;53.53;;;29.27;;
12816;SDS011;6473;51.552;6.716;2023-02-10T06:50:53;64.17;;;31.10;;
12816;SDS011;6473;51.552;6.716;2023-02-10T06:53:20;55.37;;;31.27;;
12816;SDS011;6473;51.552;6.716;2023-02-10T06:55:47;60.00;;;32.23;;
12816;SDS011;6473;51.552;6.716;2023-02-10T06:58:15;60.93;;;32.43;;
12816;SDS011;6473;51.552;6.716;2023-02-10T07:00:42;54.37;;;29.03;;
12816;SDS011;6473;51.552;6.716;2023-02-10T07:03:10;61.00;;;31.33;;
12816;SDS011;6473;51.552;6.716;2023-02-10T07:05:40;56.07;;;30.37;;
12816;SDS011;6473;51.552;6.716;2023-02-10T07:08:07;64.60;;;34.53;;
12816;SDS011;6473;51.552;6.716;2023-02-10T07:10:34;59.70;;;32.43;;
12816;SDS011;6473;51.552;6.716;2023-02-10T07:13:02;61.03;;;32.07;;
12816;SDS011;6473;51.552;6.716;2023-02-10T07:15:29;62.70;;;33.40;;
12816;SDS011;6473;51.552;6.716;2023-02-10T07:17:57;61.20;;;32.57;;
12816;SDS011;6473;51.552;6.716;2023-02-10T07:20:24;60.27;;;32.83;;
12816;SDS011;6473;51.552;6.716;2023-02-10T07:22:52;60.77;;;31.83;;
12816;SDS011;6473;51.552;6.716;2023-02-10T07:25:19;61.20;;;33.33;;
12816;SDS011;6473;51.552;6.716;2023-02-10T07:27:46;63.37;;;32.50;;
12816;SDS011;6473;51.552;6.716;2023-02-10T07:30:13;59.27;;;32.03;;
12816;SDS011;6473;51.552;6.716;2023-02-10T07:32:40;65.67;;;33.30;;
12816;SDS011;6473;51.552;6.716;2023-02-10T07:35:09;61.30;;;32.67;;
12816;SDS011;6473;51.552;6.716;2023-02-10T07:37:36;56.83;;;31.57;;
12816;SDS011;6473;51.552;6.716;2023-02-10T07:40:06;58.40;;;32.60;;
12816;SDS011;6473;51.552;6.716;2023-02-10T07:45:10;60.53;;;32.07;;
12816;SDS011;6473;51.552;6.716;2023-02-10T07:47:37;52.63;;;31.30;;
12816;SDS011;6473;51.552;6.716;2023-02-10T07:50:05;59.87;;;32.83;;
12816;SDS011;6473;51.552;6.716;2023-02-10T07:52:32;59.77;;;32.27;;
12816;SDS011;6473;51.552;6.716;2023-02-10T07:54:59;66.50;;;31.70;;
12816;SDS011;6473;51.552;6.716;2023-02-10T07:57:29;57.80;;;32.60;;
12816;SDS011;6473;51.552;6.716;2023-02-10T07:59:56;61.70;;;33.20;;
12816;SDS011;6473;51.552;6.716;2023-02-10T08:02:23;58.60;;;30.40;;
12816;SDS011;6473;51.552;6.716;2023-02-10T08:04:50;63.00;;;31.17;;
12816;SDS011;6473;51.552;6.716;2023-02-10T08:07:19;60.90;;;32.67;;
12816;SDS011;6473;51.552;6.716;2023-02-10T08:09:46;58.27;;;31.13;;
12816;SDS011;6473;51.552;6.716;2023-02-10T08:12:13;57.43;;;31.40;;
12816;SDS011;6473;51.552;6.716;2023-02-10T08:14:42;56.70;;;31.90;;
12816;SDS011;6473;51.552;6.716;2023-02-10T08:17:09;58.37;;;32.83;;
12816;SDS011;6473;51.552;6.716;2023-02-10T08:19:35;61.30;;;32.10;;
12816;SDS011;6473;51.552;6.716;2023-02-10T08:22:02;61.47;;;32.97;;
12816;SDS011;6473;51.552;6.716;2023-02-10T08:24:30;57.73;;;31.80;;
12816;SDS011;6473;51.552;6.716;2023-02-10T08:26:57;52.97;;;29.57;;
12816;SDS011;6473;51.552;6.716;2023-02-10T08:29:24;54.90;;;31.13;;
12816;SDS011;6473;51.552;6.716;2023-02-10T08:31:53;56.80;;;33.30;;
12816;SDS011;6473;51.552;6.716;2023-02-10T08:34:20;59.17;;;31.53;;
12816;SDS011;6473;51.552;6.716;2023-02-10T08:36:47;62.93;;;31.83;;
12816;SDS011;6473;51.552;6.716;2023-02-10T08:39:14;56.60;;;32.03;;
12816;SDS011;6473;51.552;6.716;2023-02-10T08:44:23;50.33;;;30.27;;
12816;SDS011;6473;51.552;6.716;2023-02-10T08:46:50;55.43;;;31.13;;
12816;SDS011;6473;51.552;6.716;2023-02-10T08:49:20;53.17;;;29.57;;
12816;SDS011;6473;51.552;6.716;2023-02-10T08:51:49;49.37;;;28.03;;
12816;SDS011;6473;51.552;6.716;2023-02-10T08:54:16;51.60;;;30.03;;
12816;SDS011;6473;51.552;6.716;2023-02-10T08:56:43;47.70;;;30.07;;
12816;SDS011;6473;51.552;6.716;2023-02-10T08:59:10;52.83;;;29.93;;
12816;SDS011;6473;51.552;6.716;2023-02-10T09:01:37;49.80;;;29.80;;
12816;SDS011;6473;51.552;6.716;2023-02-10T09:04:04;46.00;;;27.40;;
12816;SDS011;6473;51.552;6.716;2023-02-10T09:06:33;44.72;;;26.98;;
12816;SDS011;6473;51.552;6.716;2023-02-10T09:09:04;42.87;;;27.37;;
12816;SDS011;6473;51.552;6.716;2023-02-10T09:11:31;50.83;;;27.20;;
12816;SDS011;6473;51.552;6.716;2023-02-10T09:13:59;46.88;;;27.08;;
12816;SDS011;6473;51.552;6.716;2023-02-10T09:16:26;45.65;;;25.80;;
12816;SDS011;6473;51.552;6.716;2023-02-10T09:18:53;46.65;;;25.95;;
12816;SDS011;6473;51.552;6.716;2023-02-10T09:21:20;48.08;;;25.42;;
12816;SDS011;6473;51.552;6.716;2023-02-10T09:23:50;43.40;;;26.58;;
12816;SDS011;6473;51.552;6.716;2023-02-10T09:26:18;42.22;;;24.90;;
12816;SDS011;6473;51.552;6.716;2023-02-10T09:28:45;47.90;;;26.80;;
12816;SDS011;6473;51.552;6.716;2023-02-10T09:31:14;47.15;;;26.52;;
12816;SDS011;6473;51.552;6.716;2023-02-10T09:33:41;48.60;;;27.85;;
12816;SDS011;6473;51.552;6.716;2023-02-10T09:36:10;47.08;;;27.83;;
12816;SDS011;6473;51.552;6.716;2023-02-10T09:38:40;46.35;;;26.58;;
12816;SDS011;6473;51.552;6.716;2023-02-10T09:54:13;49.90;;;25.77;;
12816;SDS011;6473;51.552;6.716;2023-02-10T09:56:41;48.90;;;28.00;;
12816;SDS011;6473;51.552;6.716;2023-02-10T09:59:10;47.08;;;27.48;;
12816;SDS011;6473;51.552;6.716;2023-02-10T10:01:42;54.28;;;29.67;;
12816;SDS011;6473;51.552;6.716;2023-02-10T10:04:13;48.20;;;27.70;;
12816;SDS011;6473;51.552;6.716;2023-02-10T10:06:42;49.67;;;25.75;;
12816;SDS011;6473;51.552;6.716;2023-02-10T10:09:15;52.88;;;27.90;;
12816;SDS011;6473;51.552;6.716;2023-02-10T10:11:50;47.05;;;25.85;;
12816;SDS011;6473;51.552;6.716;2023-02-10T10:14:18;52.65;;;27.48;;
12816;SDS011;6473;51.552;6.716;2023-02-10T10:16:54;45.65;;;26.20;;
12816;SDS011;6473;51.552;6.716;2023-02-10T10:19:34;50.13;;;25.13;;
12816;SDS011;6473;51.552;6.716;2023-02-10T10:22:12;44.80;;;24.95;;
12816;SDS011;6473;51.552;6.716;2023-02-10T10:25:50;49.08;;;24.35;;
12816;SDS011;6473;51.552;6.716;2023-02-10T10:29:16;50.10;;;25.15;;
12816;SDS011;6473;51.552;6.716;2023-02-10T10:31:47;49.53;;;25.90;;
12816;SDS011;6473;51.552;6.716;2023-02-10T10:35:16;51.95;;;25.98;;
12816;SDS011;6473;51.552;6.716;2023-02-10T10:37:46;45.83;;;25.23;;
12816;SDS011;6473;51.552;6.716;2023-02-10T10:40:15;46.78;;;26.45;;
12816;SDS011;6473;51.552;6.716;2023-02-10T10:45:42;45.08;;;24.80;;
12816;SDS011;6473;51.552;6.716;2023-02-10T10:48:14;46.40;;;24.80;;
12816;SDS011;6473;51.552;6.716;2023-02-10T10:50:43;49.33;;;25.77;;
12816;SDS011;6473;51.552;6.716;2023-02-10T10:53:12;42.15;;;23.30;;
12816;SDS011;6473;51.552;6.716;2023-02-10T10:55:42;40.50;;;23.27;;
12816;SDS011;6473;51.552;6.716;2023-02-10T10:58:16;39.58;;;23.25;;
12816;SDS011;6473;51.552;6.716;2023-02-10T11:00:51;41.28;;;23.60;;
12816;SDS011;6473;51.552;6.716;2023-02-10T11:03:21;41.22;;;23.48;;
12816;SDS011;6473;51.552;6.716;2023-02-10T11:05:57;37.53;;;22.55;;
12816;SDS011;6473;51.552;6.716;2023-02-10T11:08:28;37.60;;;23.17;;
12816;SDS011;6473;51.552;6.716;2023-02-10T11:10:58;40.00;;;23.13;;
12816;SDS011;6473;51.552;6.716;2023-02-10T11:13:28;31.70;;;22.02;;
12816;SDS011;6473;51.552;6.716;2023-02-10T11:15:59;37.17;;;22.63;;
12816;SDS011;6473;51.552;6.716;2023-02-10T11:18:29;33.35;;;20.98;;
12816;SDS011;6473;51.552;6.716;2023-02-10T11:20:57;35.28;;;22.40;;
12816;SDS011;6473;51.552;6.716;2023-02-10T11:23:25;32.05;;;20.30;;
12816;SDS011;6473;51.552;6.716;2023-02-10T11:25:57;32.58;;;21.17;;
12816;SDS011;6473;51.552;6.716;2023-02-10T11:28:27;30.10;;;19.60;;
12816;SDS011;6473;51.552;6.716;2023-02-10T11:30:57;29.70;;;19.38;;
12816;SDS011;6473;51.552;6.716;2023-02-10T11:33:28;27.85;;;19.35;;
12816;SDS011;6473;51.552;6.716;2023-02-10T11:35:58;27.45;;;18.13;;
12816;SDS011;6473;51.552;6.716;2023-02-10T11:38:27;26.77;;;18.13;;
12816;SDS011;6473;51.552;6.716;2023-02-10T11:40:55;26.83;;;18.50;;
12816;SDS011;6473;51.552;6.716;2023-02-10T11:43:25;26.10;;;17.60;;
12816;SDS011;6473;51.552;6.716;2023-02-10T11:45:56;27.52;;;17.60;;
12816;SDS011;6473;51.552;6.716;2023-02-10T11:48:26;23.13;;;16.92;;
12816;SDS011;6473;51.552;6.716;2023-02-10T11:51:00;24.48;;;18.27;;
12816;SDS011;6473;51.552;6.716;2023-02-10T11:53:31;23.23;;;17.95;;
12816;SDS011;6473;51.552;6.716;2023-02-10T11:56:01;27.33;;;18.40;;
12816;SDS011;6473;51.552;6.716;2023-02-10T12:01:42;27.42;;;17.50;;
12816;SDS011;6473;51.552;6.716;2023-02-10T12:07:13;20.80;;;15.93;;
12816;SDS011;6473;51.552;6.716;2023-02-10T12:09:48;27.63;;;16.52;;
12816;SDS011;6473;51.552;6.716;2023-02-10T12:12:22;23.83;;;16.75;;
12816;SDS011;6473;51.552;6.716;2023-02-10T12:14:57;24.77;;;17.08;;
12816;SDS011;6473;51.552;6.716;2023-02-10T12:17:33;26.38;;;17.60;;
12816;SDS011;6473;51.552;6.716;2023-02-10T12:20:17;26.45;;;16.10;;
12816;SDS011;6473;51.552;6.716;2023-02-10T12:22:57;23.60;;;15.75;;
12816;SDS011;6473;51.552;6.716;2023-02-10T12:25:36;22.73;;;15.48;;
12816;SDS011;6473;51.552;6.716;2023-02-10T12:28:10;23.23;;;15.13;;
12816;SDS011;6473;51.552;6.716;2023-02-10T12:30:48;23.20;;;14.75;;
12816;SDS011;6473;51.552;6.716;2023-02-10T12:33:24;23.48;;;14.73;;
12816;SDS011;6473;51.552;6.716;2023-02-10T12:36:05;25.55;;;15.77;;
12816;SDS011;6473;51.552;6.716;2023-02-10T12:38:43;21.02;;;14.50;;
12816;SDS011;6473;51.552;6.716;2023-02-10T12:41:21;22.33;;;13.57;;
12816;SDS011;6473;51.552;6.716;2023-02-10T12:43:57;27.38;;;13.93;;
12816;SDS011;6473;51.552;6.716;2023-02-10T12:46:34;27.30;;;14.23;;
12816;SDS011;6473;51.552;6.716;2023-02-10T12:49:12;18.83;;;12.82;;
12816;SDS011;6473;51.552;6.716;2023-02-10T12:54:40;22.10;;;12.15;;
12816;SDS011;6473;51.552;6.716;2023-02-10T12:57:14;20.33;;;11.77;;
12816;SDS011;6473;51.552;6.716;2023-02-10T12:59:48;16.33;;;11.32;;
12816;SDS011;6473;51.552;6.716;2023-02-10T13:02:20;17.98;;;11.18;;
12816;SDS011;6473;51.552;6.716;2023-02-10T13:04:53;18.48;;;9.70;;
12816;SDS011;6473;51.552;6.716;2023-02-10T13:07:32;15.30;;;9.77;;
12816;SDS011;6473;51.552;6.716;2023-02-10T13:10:08;18.45;;;10.32;;
12816;SDS011;6473;51.552;6.716;2023-02-10T13:12:45;15.90;;;10.90;;
12816;SDS011;6473;51.552;6.716;2023-02-10T13:15:14;17.67;;;11.27;;
12816;SDS011;6473;51.552;6.716;2023-02-10T13:17:44;13.27;;;9.63;;
12816;SDS011;6473;51.552;6.716;2023-02-10T13:20:20;18.08;;;11.35;;
12816;SDS011;6473;51.552;6.716;2023-02-10T13:22:55;21.77;;;11.05;;
12816;SDS011;6473;51.552;6.716;2023-02-10T13:25:30;16.73;;;10.95;;
12816;SDS011;6473;51.552;6.716;2023-02-10T13:28:08;17.38;;;11.02;;
12816;SDS011;6473;51.552;6.716;2023-02-10T13:30:44;17.63;;;12.10;;
12816;SDS011;6473;51.552;6.716;2023-02-10T13:33:39;16.15;;;11.07;;
12816;SDS011;6473;51.552;6.716;2023-02-10T13:36:13;17.33;;;10.95;;
12816;SDS011;6473;51.552;6.716;2023-02-10T13:38:47;20.70;;;11.73;;
12816;SDS011;6473;51.552;6.716;2023-02-10T13:41:22;16.38;;;10.43;;
12816;SDS011;6473;51.552;6.716;2023-02-10T13:44:18;19.23;;;11.43;;
12816;SDS011;6473;51.552;6.716;2023-02-10T13:46:50;22.30;;;11.82;;
12816;SDS011;6473;51.552;6.716;2023-02-10T13:49:20;18.48;;;10.65;;
12816;SDS011;6473;51.552;6.716;2023-02-10T13:51:48;17.77;;;10.55;;
12816;SDS011;6473;51.552;6.716;2023-02-10T13:54:24;14.32;;;10.05;;
12816;SDS011;6473;51.552;6.716;2023-02-10T13:56:53;13.80;;;9.90;;
12816;SDS011;6473;51.552;6.716;2023-02-10T13:59:26;15.43;;;10.18;;
12816;SDS011;6473;51.552;6.716;2023-02-10T14:02:01;15.82;;;11.10;;
12816;SDS011;6473;51.552;6.716;2023-02-10T14:04:39;17.65;;;11.82;;
12816;SDS011;6473;51.552;6.716;2023-02-10T14:07:14;21.92;;;13.15;;
12816;SDS011;6473;51.552;6.716;2023-02-10T14:10:03;19.48;;;13.63;;
12816;SDS011;6473;51.552;6.716;2023-02-10T14:12:54;22.98;;;15.20;;
12816;SDS011;6473;51.552;6.716;2023-02-10T14:15:24;22.20;;;14.55;;
12816;SDS011;6473;51.552;6.716;2023-02-10T14:17:54;18.58;;;14.50;;
12816;SDS011;6473;51.552;6.716;2023-02-10T14:20:27;26.05;;;14.93;;
12816;SDS011;6473;51.552;6.716;2023-02-10T14:22:57;23.00;;;15.98;;
12816;SDS011;6473;51.552;6.716;2023-02-10T14:25:34;24.38;;;16.63;;
12816;SDS011;6473;51.552;6.716;2023-02-10T14:28:06;23.33;;;17.13;;
12816;SDS011;6473;51.552;6.716;2023-02-10T14:30:44;22.45;;;16.33;;
12816;SDS011;6473;51.552;6.716;2023-02-10T14:33:19;24.42;;;18.52;;
12816;SDS011;6473;51.552;6.716;2023-02-10T14:35:48;27.27;;;17.90;;
12816;SDS011;6473;51.552;6.716;2023-02-10T14:38:19;26.40;;;17.55;;
12816;SDS011;6473;51.552;6.716;2023-02-10T14:40:48;30.70;;;17.13;;
12816;SDS011;6473;51.552;6.716;2023-02-10T14:43:18;27.45;;;18.55;;
12816;SDS011;6473;51.552;6.716;2023-02-10T14:45:49;25.95;;;17.27;;
12816;SDS011;6473;51.552;6.716;2023-02-10T14:48:16;27.90;;;18.27;;
12816;SDS011;6473;51.552;6.716;2023-02-10T14:51:01;21.92;;;17.38;;
12816;SDS011;6473;51.552;6.716;2023-02-10T14:53:30;26.73;;;18.45;;
12816;SDS011;6473;51.552;6.716;2023-02-10T14:55:58;26.20;;;17.67;;
12816;SDS011;6473;51.552;6.716;2023-02-10T14:58:27;28.52;;;18.95;;
12816;SDS011;6473;51.552;6.716;2023-02-10T15:00:58;29.30;;;18.70;;
12816;SDS011;6473;51.552;6.716;2023-02-10T15:03:30;27.92;;;19.70;;
12816;SDS011;6473;51.552;6.716;2023-02-10T15:05:58;24.30;;;17.23;;
12816;SDS011;6473;51.552;6.716;2023-02-10T15:08:29;26.75;;;19.02;;
12816;SDS011;6473;51.552;6.716;2023-02-10T15:11:04;26.80;;;17.58;;
12816;SDS011;6473;51.552;6.716;2023-02-10T15:13:38;26.55;;;17.58;;
12816;SDS011;6473;51.552;6.716;2023-02-10T15:16:08;24.38;;;18.15;;
12816;SDS011;6473;51.552;6.716;2023-02-10T15:18:39;25.73;;;18.30;;
12816;SDS011;6473;51.552;6.716;2023-02-10T15:21:21;26.13;;;18.63;;
12816;SDS011;6473;51.552;6.716;2023-02-10T15:23:51;25.15;;;17.65;;
12816;SDS011;6473;51.552;6.716;2023-02-10T15:26:20;27.10;;;18.50;;
12816;SDS011;6473;51.552;6.716;2023-02-10T15:28:58;23.98;;;17.55;;
12816;SDS011;6473;51.552;6.716;2023-02-10T15:31:31;23.88;;;18.33;;